createdAt,value
2022-12-17T00:00:29.693Z,66.20
2022-12-17T00:01:29.665Z,68.40
2022-12-17T00:02:29.678Z,66.60
2022-12-17T00:03:29.846Z,68.60
2022-12-17T00:04:29.668Z,63.00
2022-12-17T00:05:29.652Z,69.60
2022-12-17T00:06:29.563Z,61.40
2022-12-17T00:07:29.666Z,60.70
2022-12-17T00:08:30.522Z,61.60
2022-12-17T00:09:30.434Z,67.90
2022-12-17T00:10:29.550Z,59.10
2022-12-17T00:11:29.599Z,58.30
2022-12-17T00:12:29.523Z,54.70
2022-12-17T00:13:29.560Z,50.40
2022-12-17T00:14:29.515Z,52.20
2022-12-17T00:15:29.618Z,44.10
2022-12-17T00:16:29.553Z,49.60
2022-12-17T00:17:29.490Z,48.40
2022-12-17T00:18:29.471Z,47.70
2022-12-17T00:19:29.539Z,47.00
2022-12-17T00:20:29.442Z,44.50
2022-12-17T00:21:29.475Z,47.00
2022-12-17T00:22:29.420Z,45.20
2022-12-17T00:23:29.419Z,43.30
2022-12-17T00:24:29.409Z,47.70
2022-12-17T00:25:29.429Z,47.80
2022-12-17T00:26:29.361Z,45.80
2022-12-17T00:27:29.379Z,47.90
2022-12-17T00:28:29.384Z,47.90
2022-12-17T00:29:29.360Z,52.90
2022-12-17T00:30:29.362Z,50.60
2022-12-17T00:31:29.399Z,49.80
2022-12-17T00:32:29.346Z,47.40
2022-12-17T00:33:29.318Z,45.00
2022-12-17T00:34:29.292Z,44.10
2022-12-17T00:35:30.079Z,45.10
2022-12-17T00:36:29.267Z,45.90
2022-12-17T00:37:29.366Z,46.60
2022-12-17T00:38:29.391Z,49.00
2022-12-17T00:39:30.109Z,50.90
2022-12-17T00:40:29.396Z,53.40
2022-12-17T00:41:29.260Z,52.50
2022-12-17T00:42:29.244Z,50.00
2022-12-17T00:43:29.207Z,50.00
2022-12-17T00:44:29.215Z,48.60
2022-12-17T00:45:29.173Z,49.40
2022-12-17T00:46:29.209Z,46.80
2022-12-17T00:47:29.240Z,46.60
2022-12-17T00:48:29.119Z,54.50
2022-12-17T00:49:29.256Z,50.50
2022-12-17T00:50:29.279Z,50.90
2022-12-17T00:51:29.131Z,50.60
2022-12-17T00:52:29.162Z,46.80
2022-12-17T00:53:29.108Z,52.50
2022-12-17T00:54:29.072Z,56.80
2022-12-17T00:55:29.064Z,52.90
2022-12-17T00:56:29.068Z,54.30
2022-12-17T00:57:29.107Z,51.10
2022-12-17T00:58:29.026Z,51.40
2022-12-17T00:59:29.035Z,57.20
2022-12-17T01:00:29.106Z,45.00
2022-12-17T01:01:29.148Z,45.10
2022-12-17T01:02:29.108Z,44.70
2022-12-17T01:03:29.073Z,43.90
2022-12-17T01:04:28.989Z,42.00
2022-12-17T01:05:28.981Z,39.10
2022-12-17T01:06:28.937Z,45.00
2022-12-17T01:07:28.939Z,38.90
2022-12-17T01:08:28.988Z,42.40
2022-12-17T01:09:28.925Z,40.90
2022-12-17T01:10:29.714Z,38.70
2022-12-17T01:11:28.939Z,38.10
2022-12-17T01:12:28.873Z,35.40
2022-12-17T01:13:28.878Z,38.20
2022-12-17T01:14:28.861Z,37.80
2022-12-17T01:15:28.870Z,36.70
2022-12-17T01:16:28.864Z,33.50
2022-12-17T01:17:28.844Z,32.50
2022-12-17T01:18:28.796Z,36.50
2022-12-17T01:19:28.978Z,38.40
2022-12-17T01:20:28.778Z,40.00
2022-12-17T01:21:28.798Z,34.40
2022-12-17T01:22:28.762Z,36.90
2022-12-17T01:23:28.781Z,36.00
2022-12-17T01:24:28.807Z,36.90
2022-12-17T01:25:28.758Z,39.40
2022-12-17T01:26:28.727Z,36.20
2022-12-17T01:27:28.718Z,38.50
2022-12-17T01:28:28.758Z,37.00
2022-12-17T01:29:28.745Z,37.70
2022-12-17T01:30:29.567Z,38.20
2022-12-17T01:31:34.308Z,35.20
2022-12-17T01:32:29.656Z,39.00
2022-12-17T01:33:28.657Z,38.90
2022-12-17T01:34:28.627Z,36.90
2022-12-17T01:35:28.670Z,36.00
2022-12-17T01:36:28.608Z,37.90
2022-12-17T01:37:28.636Z,39.90
2022-12-17T01:38:28.585Z,39.10
2022-12-17T01:39:28.634Z,38.40
2022-12-17T01:40:28.564Z,35.40
2022-12-17T01:41:28.585Z,40.30
2022-12-17T01:42:28.529Z,37.00
2022-12-17T01:43:28.573Z,41.20
2022-12-17T01:44:28.523Z,39.00
2022-12-17T01:45:28.550Z,35.90
2022-12-17T01:46:28.497Z,37.80
2022-12-17T01:47:28.545Z,38.00
2022-12-17T01:48:28.463Z,39.80
2022-12-17T01:49:28.452Z,36.80
2022-12-17T01:50:28.470Z,41.30
2022-12-17T01:51:28.685Z,38.20
2022-12-17T01:52:29.245Z,37.10
2022-12-17T01:53:28.410Z,39.20
2022-12-17T01:54:28.413Z,39.20
2022-12-17T01:55:28.413Z,38.90
2022-12-17T01:56:28.473Z,35.20
2022-12-17T01:57:28.381Z,42.30
2022-12-17T01:58:28.384Z,37.60
2022-12-17T01:59:28.370Z,39.20
2022-12-17T02:00:28.380Z,36.00
2022-12-17T02:01:28.453Z,37.10
2022-12-17T02:02:28.465Z,37.70
2022-12-17T02:03:28.371Z,38.80
2022-12-17T02:04:28.337Z,40.90
2022-12-17T02:05:28.281Z,41.60
2022-12-17T02:06:28.301Z,39.30
2022-12-17T02:07:28.395Z,41.00
2022-12-17T02:08:28.259Z,41.80
2022-12-17T02:09:28.229Z,41.50
2022-12-17T02:10:28.242Z,40.80
2022-12-17T02:11:29.009Z,42.50
2022-12-17T02:12:28.250Z,38.70
2022-12-17T02:13:28.189Z,44.80
2022-12-17T02:14:28.201Z,48.20
2022-12-17T02:15:28.238Z,38.60
2022-12-17T02:16:28.268Z,43.90
2022-12-17T02:17:28.158Z,39.60
2022-12-17T02:18:28.158Z,39.70
2022-12-17T02:19:28.149Z,42.10
2022-12-17T02:20:28.127Z,38.60
2022-12-17T02:21:28.098Z,41.90
2022-12-17T02:22:28.143Z,45.20
2022-12-17T02:23:28.096Z,45.10
2022-12-17T02:24:28.100Z,41.90
2022-12-17T02:25:28.058Z,40.40
2022-12-17T02:26:28.155Z,40.80
2022-12-17T02:27:28.064Z,42.80
2022-12-17T02:28:28.071Z,41.20
2022-12-17T02:29:28.016Z,40.10
2022-12-17T02:30:28.040Z,40.70
2022-12-17T02:31:28.009Z,41.50
2022-12-17T02:32:28.014Z,46.20
2022-12-17T02:33:27.976Z,43.10
2022-12-17T02:34:28.021Z,45.70
2022-12-17T02:35:27.970Z,46.10
2022-12-17T02:36:27.968Z,44.10
2022-12-17T02:37:27.953Z,46.60
2022-12-17T02:38:27.956Z,44.30
2022-12-17T02:39:27.904Z,43.10
2022-12-17T02:40:27.919Z,43.90
2022-12-17T02:41:27.896Z,44.80
2022-12-17T02:42:27.923Z,42.70
2022-12-17T02:43:27.873Z,40.90
2022-12-17T02:44:27.914Z,42.90
2022-12-17T02:45:27.849Z,38.80
2022-12-17T02:46:27.919Z,42.00
2022-12-17T02:47:27.828Z,42.00
2022-12-17T02:48:27.843Z,42.70
2022-12-17T02:49:27.831Z,39.80
2022-12-17T02:50:27.813Z,40.30
2022-12-17T02:51:27.774Z,37.40
2022-12-17T02:52:33.283Z,41.20
2022-12-17T02:53:28.799Z,43.10
2022-12-17T02:54:27.782Z,40.30
2022-12-17T02:55:27.731Z,42.30
2022-12-17T02:56:27.806Z,43.30
2022-12-17T02:57:27.750Z,43.60
2022-12-17T02:58:28.540Z,41.60
2022-12-17T02:59:27.728Z,40.20
2022-12-17T03:00:27.710Z,47.20
2022-12-17T03:01:27.863Z,46.00
2022-12-17T03:02:27.792Z,44.20
2022-12-17T03:03:27.769Z,45.00
2022-12-17T03:04:27.711Z,43.00
2022-12-17T03:05:44.482Z,49.30
2022-12-17T03:06:28.693Z,46.50
2022-12-17T03:07:27.619Z,45.90
2022-12-17T03:08:27.608Z,47.30
2022-12-17T03:09:27.599Z,49.00
2022-12-17T03:10:27.618Z,45.40
2022-12-17T03:11:27.567Z,48.10
2022-12-17T03:12:27.578Z,48.70
2022-12-17T03:13:27.640Z,49.60
2022-12-17T03:14:27.557Z,46.40
2022-12-17T03:15:27.516Z,45.10
2022-12-17T03:16:30.384Z,48.00
2022-12-17T03:17:28.495Z,41.60
2022-12-17T03:18:27.505Z,47.60
2022-12-17T03:19:27.476Z,43.40
2022-12-17T03:20:27.517Z,47.10
2022-12-17T03:21:27.464Z,45.90
2022-12-17T03:22:27.468Z,52.60
2022-12-17T03:23:27.417Z,43.00
2022-12-17T03:24:27.435Z,46.30
2022-12-17T03:25:27.444Z,49.40
2022-12-17T03:26:27.426Z,49.40
2022-12-17T03:27:27.385Z,52.80
2022-12-17T03:28:27.449Z,50.50
2022-12-17T03:29:27.364Z,48.00
2022-12-17T03:30:27.415Z,53.70
2022-12-17T03:31:27.414Z,51.80
2022-12-17T03:32:27.424Z,49.60
2022-12-17T03:33:28.267Z,42.60
2022-12-17T03:34:28.163Z,41.50
2022-12-17T03:35:27.304Z,40.90
2022-12-17T03:36:27.305Z,37.70
2022-12-17T03:37:27.325Z,42.70
2022-12-17T03:38:27.283Z,42.60
2022-12-17T03:39:27.242Z,42.20
2022-12-17T03:40:27.280Z,54.00
2022-12-17T03:41:27.232Z,52.90
2022-12-17T03:42:27.254Z,52.70
2022-12-17T03:43:27.241Z,48.20
2022-12-17T03:44:27.214Z,49.60
2022-12-17T03:45:27.181Z,49.00
2022-12-17T03:46:27.240Z,40.70
2022-12-17T03:47:27.172Z,56.90
2022-12-17T03:48:27.217Z,59.20
2022-12-17T03:49:27.150Z,55.70
2022-12-17T03:50:27.163Z,57.90
2022-12-17T03:51:27.121Z,62.40
2022-12-17T03:52:27.165Z,66.60
2022-12-17T03:53:27.869Z,66.60
2022-12-17T03:54:27.820Z,61.80
2022-12-17T03:55:27.123Z,69.70
2022-12-17T03:56:27.106Z,67.90
2022-12-17T03:57:27.039Z,76.00
2022-12-17T03:58:27.251Z,62.10
2022-12-17T03:59:27.173Z,63.50
2022-12-17T04:00:27.059Z,63.90
2022-12-17T04:01:27.066Z,61.70
2022-12-17T04:02:27.271Z,59.80
2022-12-17T04:03:27.112Z,62.00
2022-12-17T04:04:26.999Z,52.90
2022-12-17T04:05:27.219Z,55.50
2022-12-17T04:06:26.977Z,57.50
2022-12-17T04:07:26.948Z,51.50
2022-12-17T04:08:27.038Z,54.80
2022-12-17T04:09:26.942Z,52.40
2022-12-17T04:10:27.547Z,52.60
2022-12-17T04:11:26.908Z,59.30
2022-12-17T04:12:26.942Z,67.20
2022-12-17T04:13:27.748Z,64.90
2022-12-17T04:14:26.955Z,59.70
2022-12-17T04:15:27.108Z,55.90
2022-12-17T04:16:27.078Z,64.80
2022-12-17T04:17:26.825Z,61.80
2022-12-17T04:18:26.864Z,57.20
2022-12-17T04:19:26.837Z,48.40
2022-12-17T04:20:26.946Z,53.50
2022-12-17T04:21:26.895Z,53.50
2022-12-17T04:22:26.810Z,49.30
2022-12-17T04:23:26.794Z,56.30
2022-12-17T04:24:26.784Z,46.90
2022-12-17T04:25:26.744Z,52.10
2022-12-17T04:26:26.793Z,47.70
2022-12-17T04:27:26.742Z,51.10
2022-12-17T04:28:26.733Z,47.40
2022-12-17T04:29:26.733Z,47.10
2022-12-17T04:30:26.733Z,45.80
2022-12-17T04:31:26.739Z,54.50
2022-12-17T04:32:31.097Z,47.90
2022-12-17T04:33:27.672Z,48.60
2022-12-17T04:34:27.520Z,48.20
2022-12-17T04:35:27.451Z,44.20
2022-12-17T04:36:26.671Z,47.40
2022-12-17T04:37:26.631Z,49.10
2022-12-17T04:38:26.663Z,46.50
2022-12-17T04:39:26.592Z,46.00
2022-12-17T04:40:26.601Z,49.80
2022-12-17T04:41:26.590Z,49.70
2022-12-17T04:42:26.599Z,44.30
2022-12-17T04:43:26.553Z,44.70
2022-12-17T04:44:26.621Z,41.60
2022-12-17T04:45:26.527Z,46.50
2022-12-17T04:46:26.582Z,49.40
2022-12-17T04:47:26.534Z,45.20
2022-12-17T04:48:27.252Z,47.30
2022-12-17T04:49:26.532Z,45.70
2022-12-17T04:50:26.498Z,46.20
2022-12-17T04:51:26.500Z,44.70
2022-12-17T04:52:26.497Z,41.00
2022-12-17T04:53:26.457Z,44.10
2022-12-17T04:54:27.389Z,42.00
2022-12-17T04:55:27.302Z,43.00
2022-12-17T04:56:27.198Z,42.90
2022-12-17T04:57:26.422Z,45.80
2022-12-17T04:58:26.437Z,40.60
2022-12-17T04:59:27.169Z,44.70
2022-12-17T05:00:26.501Z,44.10
2022-12-17T05:01:26.440Z,46.40
2022-12-17T05:02:26.535Z,42.50
2022-12-17T05:03:26.409Z,41.00
2022-12-17T05:04:26.675Z,42.60
2022-12-17T05:05:27.108Z,43.60
2022-12-17T05:06:26.585Z,46.70
2022-12-17T05:07:26.295Z,40.20
2022-12-17T05:08:26.354Z,44.00
2022-12-17T05:09:26.295Z,47.80
2022-12-17T05:10:26.406Z,48.70
2022-12-17T05:11:26.285Z,42.50
2022-12-17T05:12:26.294Z,42.50
2022-12-17T05:13:26.225Z,44.20
2022-12-17T05:14:26.284Z,42.20
2022-12-17T05:15:26.953Z,47.50
2022-12-17T05:16:27.142Z,44.70
2022-12-17T05:17:26.343Z,43.20
2022-12-17T05:18:26.242Z,43.60
2022-12-17T05:19:26.178Z,40.90
2022-12-17T05:20:26.173Z,41.30
2022-12-17T05:21:30.493Z,55.00
2022-12-17T05:22:28.031Z,39.60
2022-12-17T05:23:26.183Z,44.00
2022-12-17T05:24:27.071Z,42.60
2022-12-17T05:25:26.218Z,41.50
2022-12-17T05:26:26.206Z,38.00
2022-12-17T05:27:26.213Z,46.30
2022-12-17T05:28:26.958Z,41.10
2022-12-17T05:29:26.329Z,46.60
2022-12-17T05:30:26.341Z,45.50
2022-12-17T05:31:26.497Z,40.00
2022-12-17T05:32:26.810Z,43.50
2022-12-17T05:33:26.986Z,40.20
2022-12-17T05:34:26.160Z,40.00
2022-12-17T05:35:26.020Z,40.90
2022-12-17T05:36:26.730Z,40.30
2022-12-17T05:37:26.002Z,40.30
2022-12-17T05:38:26.750Z,36.00
2022-12-17T05:39:25.981Z,37.70
2022-12-17T05:40:25.959Z,38.30
2022-12-17T05:41:25.939Z,35.10
2022-12-17T05:42:25.960Z,37.80
2022-12-17T05:43:25.902Z,37.90
2022-12-17T05:44:25.918Z,39.80
2022-12-17T05:45:25.880Z,39.60
2022-12-17T05:46:25.937Z,39.70
2022-12-17T05:47:25.850Z,36.10
2022-12-17T05:48:25.914Z,34.70
2022-12-17T05:49:26.717Z,40.20
2022-12-17T05:50:25.885Z,38.80
2022-12-17T05:51:25.816Z,36.90
2022-12-17T05:52:25.867Z,38.80
2022-12-17T05:53:25.823Z,42.00
2022-12-17T05:54:25.807Z,40.80
2022-12-17T05:55:26.665Z,36.60
2022-12-17T05:56:25.807Z,39.40
2022-12-17T05:57:25.785Z,43.70
2022-12-17T05:58:25.801Z,37.00
2022-12-17T05:59:25.744Z,37.60
2022-12-17T06:00:25.754Z,38.80
2022-12-17T06:01:25.730Z,39.50
2022-12-17T06:02:25.804Z,37.90
2022-12-17T06:03:25.827Z,36.20
2022-12-17T06:04:25.704Z,36.80
2022-12-17T06:05:25.975Z,33.00
2022-12-17T06:06:25.858Z,35.20
2022-12-17T06:07:25.684Z,36.80
2022-12-17T06:08:25.645Z,36.20
2022-12-17T06:09:25.643Z,39.30
2022-12-17T06:10:25.633Z,39.30
2022-12-17T06:11:26.399Z,38.30
2022-12-17T06:12:25.598Z,37.00
2022-12-17T06:13:25.653Z,34.10
2022-12-17T06:14:25.614Z,34.80
2022-12-17T06:15:25.580Z,43.90
2022-12-17T06:16:26.517Z,37.40
2022-12-17T06:17:25.576Z,35.30
2022-12-17T06:18:25.541Z,35.90
2022-12-17T06:19:25.583Z,38.10
2022-12-17T06:20:25.508Z,36.70
2022-12-17T06:21:25.651Z,44.50
2022-12-17T06:22:25.489Z,39.00
2022-12-17T06:23:25.499Z,40.00
2022-12-17T06:24:25.460Z,37.70
2022-12-17T06:25:26.337Z,39.20
2022-12-17T06:26:25.467Z,39.80
2022-12-17T06:27:25.909Z,42.50
2022-12-17T06:28:25.588Z,38.20
2022-12-17T06:29:26.020Z,39.10
2022-12-17T06:30:25.429Z,43.70
2022-12-17T06:31:25.495Z,42.30
2022-12-17T06:32:25.376Z,39.20
2022-12-17T06:33:26.337Z,39.80
2022-12-17T06:34:25.361Z,44.70
2022-12-17T06:35:25.386Z,45.80
2022-12-17T06:36:25.341Z,41.40
2022-12-17T06:37:26.405Z,46.60
2022-12-17T06:38:25.349Z,43.30
2022-12-17T06:39:25.354Z,44.60
2022-12-17T06:40:25.338Z,46.30
2022-12-17T06:41:25.327Z,46.50
2022-12-17T06:42:25.279Z,44.20
2022-12-17T06:43:25.287Z,45.60
2022-12-17T06:44:26.045Z,44.00
2022-12-17T06:45:25.275Z,49.10
2022-12-17T06:46:25.296Z,51.50
2022-12-17T06:47:25.424Z,70.10
2022-12-17T06:48:25.204Z,59.10
2022-12-17T06:49:25.215Z,56.00
2022-12-17T06:50:25.174Z,56.10
2022-12-17T06:51:25.202Z,50.20
2022-12-17T06:52:25.154Z,53.20
2022-12-17T06:53:25.165Z,50.50
2022-12-17T06:54:25.144Z,52.20
2022-12-17T06:55:25.145Z,58.10
2022-12-17T06:56:25.133Z,62.30
2022-12-17T06:57:25.153Z,52.50
2022-12-17T06:58:25.985Z,55.70
2022-12-17T06:59:25.111Z,53.50
2022-12-17T07:00:25.069Z,60.40
2022-12-17T07:01:25.304Z,54.30
2022-12-17T07:02:25.234Z,60.70
2022-12-17T07:03:25.266Z,58.70
2022-12-17T07:04:25.023Z,73.90
2022-12-17T07:05:25.062Z,75.40
2022-12-17T07:06:25.023Z,75.90
2022-12-17T07:07:25.039Z,95.30
2022-12-17T07:08:25.015Z,59.80
2022-12-17T07:09:24.991Z,72.70
2022-12-17T07:10:24.960Z,82.50
2022-12-17T07:11:25.046Z,70.80
2022-12-17T07:12:24.940Z,73.50
2022-12-17T07:13:25.047Z,68.70
2022-12-17T07:14:24.975Z,67.10
2022-12-17T07:15:24.952Z,69.70
2022-12-17T07:16:24.913Z,69.90
2022-12-17T07:17:24.950Z,69.30
2022-12-17T07:18:24.921Z,87.90
2022-12-17T07:19:27.446Z,66.60
2022-12-17T07:20:24.862Z,62.40
2022-12-17T07:21:24.858Z,66.80
2022-12-17T07:22:24.840Z,67.50
2022-12-17T07:23:24.897Z,71.20
2022-12-17T07:24:24.877Z,64.70
2022-12-17T07:25:24.826Z,75.40
2022-12-17T07:26:24.793Z,74.10
2022-12-17T07:27:24.843Z,72.70
2022-12-17T07:28:24.987Z,73.50
2022-12-17T07:29:24.779Z,73.10
2022-12-17T07:30:24.747Z,69.50
2022-12-17T07:31:24.823Z,68.50
2022-12-17T07:32:24.707Z,62.40
2022-12-17T07:33:24.736Z,60.70
2022-12-17T07:34:24.745Z,61.20
2022-12-17T07:35:24.716Z,59.80
2022-12-17T07:36:24.670Z,62.50
2022-12-17T07:37:24.705Z,60.20
2022-12-17T07:38:24.681Z,58.70
2022-12-17T07:39:24.696Z,53.50
2022-12-17T07:40:24.656Z,54.10
2022-12-17T07:41:24.686Z,50.60
2022-12-17T07:42:24.620Z,50.30
2022-12-17T07:43:24.613Z,56.00
2022-12-17T07:44:24.782Z,48.60
2022-12-17T07:45:24.671Z,54.70
2022-12-17T07:46:24.658Z,47.20
2022-12-17T07:47:24.583Z,50.60
2022-12-17T07:48:24.593Z,47.90
2022-12-17T07:49:26.108Z,45.40
2022-12-17T07:50:24.553Z,47.00
2022-12-17T07:51:24.533Z,47.00
2022-12-17T07:52:24.539Z,45.70
2022-12-17T07:53:24.747Z,50.60
2022-12-17T07:54:24.483Z,63.90
2022-12-17T07:55:25.385Z,52.20
2022-12-17T07:56:24.552Z,48.30
2022-12-17T07:57:25.440Z,47.50
2022-12-17T07:58:25.356Z,53.90
2022-12-17T07:59:25.242Z,51.80
2022-12-17T08:00:25.458Z,54.90
2022-12-17T08:01:25.395Z,51.20
2022-12-17T08:02:24.753Z,51.40
2022-12-17T08:03:24.494Z,48.70
2022-12-17T08:04:24.401Z,53.00
2022-12-17T08:05:24.399Z,48.40
2022-12-17T08:06:25.131Z,53.20
2022-12-17T08:07:24.411Z,50.60
2022-12-17T08:08:24.370Z,48.90
2022-12-17T08:09:24.339Z,40.30
2022-12-17T08:10:24.310Z,55.00
2022-12-17T08:11:24.380Z,51.80
2022-12-17T08:12:24.310Z,44.50
2022-12-17T08:13:24.318Z,57.10
2022-12-17T08:14:24.289Z,55.60
2022-12-17T08:15:24.280Z,66.40
2022-12-17T08:16:24.298Z,50.60
2022-12-17T08:17:24.287Z,48.50
2022-12-17T08:18:26.677Z,62.50
2022-12-17T08:19:24.236Z,53.70
2022-12-17T08:20:24.352Z,66.10
2022-12-17T08:21:24.234Z,66.50
2022-12-17T08:22:24.196Z,57.90
2022-12-17T08:23:24.197Z,53.00
2022-12-17T08:24:24.160Z,50.00
2022-12-17T08:25:24.167Z,44.20
2022-12-17T08:26:24.165Z,44.50
2022-12-17T08:27:24.155Z,44.10
2022-12-17T08:28:49.631Z,40.80
2022-12-17T08:29:25.139Z,34.70
2022-12-17T08:30:24.183Z,39.00
2022-12-17T08:31:24.165Z,40.00
2022-12-17T08:32:24.070Z,36.20
2022-12-17T08:33:24.092Z,39.60
2022-12-17T08:34:24.067Z,35.80
2022-12-17T08:35:24.063Z,37.90
2022-12-17T08:36:24.044Z,36.90
2022-12-17T08:37:24.055Z,31.60
2022-12-17T08:38:24.033Z,32.60
2022-12-17T08:39:24.783Z,36.50
2022-12-17T08:40:24.014Z,33.80
2022-12-17T08:41:24.031Z,30.60
2022-12-17T08:42:24.964Z,32.00
2022-12-17T08:43:24.021Z,34.70
2022-12-17T08:44:24.000Z,28.40
2022-12-17T08:45:24.734Z,30.40
2022-12-17T08:46:23.995Z,28.20
2022-12-17T08:47:24.040Z,28.60
2022-12-17T08:48:23.955Z,31.00
2022-12-17T08:49:23.943Z,30.40
2022-12-17T08:50:23.933Z,31.00
2022-12-17T08:51:23.922Z,32.40
2022-12-17T08:52:24.211Z,31.10
2022-12-17T08:53:24.221Z,33.90
2022-12-17T08:54:23.851Z,29.40
2022-12-17T08:55:24.242Z,26.80
2022-12-17T08:56:23.934Z,31.20
2022-12-17T08:57:31.428Z,30.40
2022-12-17T08:58:25.720Z,37.40
2022-12-17T08:59:23.869Z,39.10
2022-12-17T09:00:23.813Z,35.90
2022-12-17T09:01:24.728Z,40.10
2022-12-17T09:02:23.975Z,42.60
2022-12-17T09:03:23.868Z,38.00
2022-12-17T09:04:23.759Z,38.10
2022-12-17T09:05:23.748Z,38.20
2022-12-17T09:06:23.723Z,36.90
2022-12-17T09:07:23.730Z,38.00
2022-12-17T09:08:23.697Z,37.00
2022-12-17T09:09:23.723Z,35.90
2022-12-17T09:10:23.666Z,34.70
2022-12-17T09:11:23.829Z,35.60
2022-12-17T09:12:24.444Z,36.60
2022-12-17T09:13:23.654Z,34.50
2022-12-17T09:14:23.646Z,32.50
2022-12-17T09:15:23.642Z,35.50
2022-12-17T09:16:23.655Z,32.20
2022-12-17T09:17:23.625Z,36.30
2022-12-17T09:18:23.629Z,32.80
2022-12-17T09:19:23.608Z,37.30
2022-12-17T09:20:28.966Z,37.00
2022-12-17T09:21:25.325Z,33.70
2022-12-17T09:22:23.724Z,30.00
2022-12-17T09:23:23.555Z,31.00
2022-12-17T09:24:23.518Z,31.70
2022-12-17T09:25:23.549Z,35.10
2022-12-17T09:26:23.495Z,30.80
2022-12-17T09:27:23.534Z,34.00
2022-12-17T09:28:23.942Z,31.40
2022-12-17T09:29:23.958Z,31.10
2022-12-17T09:30:23.455Z,31.10
2022-12-17T09:31:23.507Z,31.80
2022-12-17T09:32:23.435Z,29.50
2022-12-17T09:33:23.456Z,29.30
2022-12-17T09:34:23.414Z,31.30
2022-12-17T09:35:23.432Z,27.90
2022-12-17T09:36:23.405Z,33.10
2022-12-17T09:37:23.395Z,35.60
2022-12-17T09:38:23.374Z,31.80
2022-12-17T09:39:23.382Z,27.00
2022-12-17T09:40:23.342Z,29.10
2022-12-17T09:41:23.369Z,29.60
2022-12-17T09:42:23.361Z,29.60
2022-12-17T09:43:23.331Z,26.60
2022-12-17T09:44:23.301Z,25.00
2022-12-17T09:45:23.324Z,26.70
2022-12-17T09:46:23.303Z,28.20
2022-12-17T09:47:23.580Z,27.80
2022-12-17T09:48:24.993Z,29.90
2022-12-17T09:49:23.291Z,28.40
2022-12-17T09:50:23.229Z,31.00
2022-12-17T09:51:23.731Z,30.90
2022-12-17T09:52:23.209Z,29.70
2022-12-17T09:53:23.238Z,29.80
2022-12-17T09:54:23.948Z,29.30
2022-12-17T09:55:23.219Z,30.20
2022-12-17T09:56:23.180Z,31.90
2022-12-17T09:57:23.181Z,27.30
2022-12-17T09:58:23.188Z,32.40
2022-12-17T09:59:23.157Z,25.60
2022-12-17T10:00:23.150Z,30.10
2022-12-17T10:01:23.222Z,33.20
2022-12-17T10:02:23.416Z,26.90
2022-12-17T10:03:23.178Z,29.90
2022-12-17T10:04:23.069Z,30.40
2022-12-17T10:06:34.738Z,28.90
2022-12-17T10:07:34.718Z,28.90
2022-12-17T10:08:34.688Z,28.80
2022-12-17T10:09:34.707Z,27.90
2022-12-17T10:10:35.462Z,27.60
2022-12-17T10:11:35.015Z,28.00
2022-12-17T10:12:34.678Z,26.50
2022-12-17T10:13:35.116Z,28.30
2022-12-17T10:14:34.819Z,25.70
2022-12-17T10:15:34.690Z,27.90
2022-12-17T10:16:34.918Z,25.80
2022-12-17T10:17:34.616Z,28.30
2022-12-17T10:18:34.931Z,26.30
2022-12-17T10:19:34.648Z,26.30
2022-12-17T10:20:35.311Z,30.90
2022-12-17T10:21:35.426Z,30.30
2022-12-17T10:22:38.910Z,28.50
2022-12-17T10:23:35.484Z,27.40
2022-12-17T10:24:34.536Z,28.10
2022-12-17T10:25:34.583Z,29.50
2022-12-17T10:26:35.244Z,31.00
2022-12-17T10:27:35.354Z,26.70
2022-12-17T10:28:34.515Z,24.30
2022-12-17T10:29:34.508Z,26.70
2022-12-17T10:30:34.515Z,28.70
2022-12-17T10:31:34.593Z,26.80
2022-12-17T10:32:34.433Z,28.30
2022-12-17T10:33:34.789Z,26.60
2022-12-17T10:34:34.412Z,25.50
2022-12-17T10:35:34.425Z,29.40
2022-12-17T10:36:34.414Z,31.50
2022-12-17T10:37:34.400Z,29.10
2022-12-17T10:38:34.384Z,28.10
2022-12-17T10:39:34.410Z,28.90
2022-12-17T10:40:34.362Z,28.40
2022-12-17T10:41:34.360Z,31.30
2022-12-17T10:42:34.701Z,28.20
2022-12-17T10:43:34.655Z,30.60
2022-12-17T10:44:34.339Z,28.70
2022-12-17T10:45:34.322Z,28.90
2022-12-17T10:46:34.359Z,29.20
2022-12-17T10:47:34.342Z,29.50
2022-12-17T10:48:34.263Z,27.10
2022-12-17T10:49:34.275Z,29.00
2022-12-17T10:50:34.261Z,23.90
2022-12-17T10:51:34.259Z,24.80
2022-12-17T10:52:35.152Z,28.30
2022-12-17T10:53:34.659Z,24.40
2022-12-17T10:54:34.198Z,25.20
2022-12-17T10:55:34.200Z,23.30
2022-12-17T10:56:34.210Z,24.60
2022-12-17T10:57:34.219Z,23.50
2022-12-17T10:58:34.165Z,24.20
2022-12-17T10:59:34.178Z,25.70
2022-12-17T11:00:34.126Z,24.80
2022-12-17T11:01:34.271Z,23.40
2022-12-17T11:02:34.254Z,21.40
2022-12-17T11:03:34.487Z,24.60
2022-12-17T11:04:34.129Z,23.70
2022-12-17T11:05:34.117Z,24.00
2022-12-17T11:06:37.495Z,24.60
2022-12-17T11:07:35.068Z,21.80
2022-12-17T11:08:34.423Z,24.20
2022-12-17T11:09:34.046Z,23.70
2022-12-17T11:10:34.006Z,25.40
2022-12-17T11:11:34.027Z,24.10
2022-12-17T11:12:33.987Z,23.50
2022-12-17T11:13:34.308Z,24.10
2022-12-17T11:14:33.979Z,25.20
2022-12-17T11:15:34.065Z,22.20
2022-12-17T11:16:33.995Z,23.10
2022-12-17T11:17:33.956Z,21.60
2022-12-17T11:18:33.936Z,21.80
2022-12-17T11:19:33.946Z,22.20
2022-12-17T11:20:33.943Z,19.80
2022-12-17T11:21:33.937Z,21.10
2022-12-17T11:22:33.886Z,21.70
2022-12-17T11:23:34.259Z,21.60
2022-12-17T11:24:33.875Z,20.60
2022-12-17T11:25:33.865Z,17.70
2022-12-17T11:26:33.846Z,20.30
2022-12-17T11:27:34.069Z,23.20
2022-12-17T11:28:34.622Z,20.10
2022-12-17T11:29:33.865Z,19.60
2022-12-17T11:30:33.786Z,21.20
2022-12-17T11:31:33.871Z,21.40
2022-12-17T11:32:33.763Z,21.40
2022-12-17T11:33:33.942Z,22.80
2022-12-17T11:34:33.768Z,23.90
2022-12-17T11:35:33.742Z,22.50
2022-12-17T11:36:38.736Z,25.40
2022-12-17T11:37:34.747Z,21.70
2022-12-17T11:38:33.953Z,24.70
2022-12-17T11:39:33.712Z,22.30
2022-12-17T11:40:33.698Z,25.40
2022-12-17T11:41:33.700Z,28.70
2022-12-17T11:42:33.641Z,25.80
2022-12-17T11:43:33.663Z,27.10
2022-12-17T11:44:33.622Z,25.30
2022-12-17T11:45:33.675Z,25.80
2022-12-17T11:46:33.704Z,29.90
2022-12-17T11:47:33.627Z,28.30
2022-12-17T11:48:34.773Z,26.90
2022-12-17T11:49:33.623Z,25.40
2022-12-17T11:50:33.568Z,25.10
2022-12-17T11:51:33.602Z,25.60
2022-12-17T11:52:33.551Z,28.40
2022-12-17T11:53:33.560Z,25.90
2022-12-17T11:54:33.553Z,28.70
2022-12-17T11:55:33.563Z,30.20
2022-12-17T11:56:33.503Z,33.80
2022-12-17T11:57:33.511Z,32.00
2022-12-17T11:58:33.632Z,35.20
2022-12-17T11:59:33.486Z,38.60
2022-12-17T12:00:33.460Z,30.30
2022-12-17T12:01:33.536Z,28.90
2022-12-17T12:02:33.498Z,28.20
2022-12-17T12:03:33.554Z,26.90
2022-12-17T12:04:33.449Z,22.10
2022-12-17T12:05:33.408Z,24.30
2022-12-17T12:06:33.383Z,23.60
2022-12-17T12:07:33.428Z,22.00
2022-12-17T12:08:33.490Z,21.00
2022-12-17T12:09:33.872Z,20.30
2022-12-17T12:10:33.355Z,22.00
2022-12-17T12:11:33.410Z,20.70
2022-12-17T12:12:33.308Z,21.60
2022-12-17T12:13:33.339Z,21.60
2022-12-17T12:14:33.297Z,22.00
2022-12-17T12:15:33.347Z,22.00
2022-12-17T12:16:36.187Z,20.80
2022-12-17T12:17:34.278Z,20.90
2022-12-17T12:18:33.368Z,20.70
2022-12-17T12:19:33.265Z,20.50
2022-12-17T12:20:33.226Z,20.80
2022-12-17T12:21:33.317Z,22.20
2022-12-17T12:22:33.208Z,24.00
2022-12-17T12:23:33.451Z,20.00
2022-12-17T12:24:33.262Z,23.30
2022-12-17T12:25:33.237Z,21.70
2022-12-17T12:26:33.161Z,22.00
2022-12-17T12:27:35.537Z,26.30
2022-12-17T12:28:34.381Z,23.10
2022-12-17T12:29:33.274Z,23.20
2022-12-17T12:30:33.137Z,25.10
2022-12-17T12:31:33.236Z,23.30
2022-12-17T12:32:33.359Z,21.30
2022-12-17T12:33:33.207Z,19.90
2022-12-17T12:34:33.562Z,23.00
2022-12-17T12:35:33.134Z,22.10
2022-12-17T12:36:33.054Z,20.00
2022-12-17T12:37:33.086Z,20.50
2022-12-17T12:38:33.076Z,23.30
2022-12-17T12:39:33.106Z,21.20
2022-12-17T12:40:33.025Z,21.60
2022-12-17T12:41:33.045Z,20.90
2022-12-17T12:42:32.994Z,24.10
2022-12-17T12:43:33.013Z,20.90
2022-12-17T12:44:33.016Z,21.00
2022-12-17T12:45:33.002Z,22.30
2022-12-17T12:46:32.974Z,23.40
2022-12-17T12:47:33.014Z,22.20
2022-12-17T12:48:34.140Z,22.30
2022-12-17T12:49:33.763Z,22.20
2022-12-17T12:50:32.939Z,21.50
2022-12-17T12:51:34.418Z,20.80
2022-12-17T12:52:33.302Z,20.10
2022-12-17T12:53:32.883Z,19.50